This is the latest recevied weather packets stored in our database for station/object DB0TGO-10. If no packets are shown the sender has not sent any weather packets the latest 1 day(s).
| Time | Temp. | Humidity | Pressure | Rain* | Wind** | Luminosity | Snow |
|---|---|---|---|---|---|---|---|
| 1778017775 | 12.78° C | 92% | 1008.5 hPa | 0 mm | 1.34 m/s, 45° | - | - |
| 1778014672 | 13.33° C | 92% | 1008.7 hPa | 0 mm | 1.79 m/s, 22° | - | - |
| 1778011368 | 13.89° C | 91% | 1008.7 hPa | 0 mm | 1.79 m/s, 45° | - | - |
| 1778007936 | 15° C | 88% | 1008.3 hPa | 0 mm | 1.79 m/s, 45° | - | - |
| 1778005102 | 16.11° C | 85% | 1008.2 hPa | 0 mm | 1.79 m/s, 45° | - | - |
| 1778002268 | 17.22° C | 81% | 1008.1 hPa | 0 mm | 1.79 m/s, 45° | - | - |
| 1777999280 | 19.44° C | 75% | 1008.4 hPa | 0 mm | 1.34 m/s, 45° | - | - |
| 1777995922 | 19.44° C | 70% | 1008.7 hPa | 0 mm | 1.34 m/s, 22° | - | - |
| 1777992400 | 20.56° C | 67% | 1008.8 hPa | 0 mm | 0.89 m/s, 0° | - | - |
| 1777989348 | 21.11° C | 65% | 1008.9 hPa | 0 mm | 1.79 m/s, 22° | - | - |
| 1777986460 | 21.11° C | 62% | 1009.1 hPa | 0 mm | 1.34 m/s, 270° | - | - |
| 1777983070 | 19.44° C | 71% | 1009.7 hPa | 0 mm | 0.89 m/s, 22° | - | - |
| 1777979899 | 20° C | 74% | 1009.8 hPa | 0 mm | 0.45 m/s, 45° | - | - |
| 1777976630 | 18.33° C | 81% | 1010.1 hPa | 0 mm | 1.34 m/s, 112° | - | - |
| 1777970200 | 16.11° C | 84% | 1010.2 hPa | 0 mm | 0.45 m/s, 68° | - | - |
| 1777966780 | 16.11° C | 79% | 1010.4 hPa | 0 mm | 1.79 m/s, 135° | - | - |
| 1777963586 | 15.56° C | 81% | 1010.2 hPa | 0 mm | 0.89 m/s, 68° | - | - |
| 1777957430 | 13.89° C | 91% | 1010.6 hPa | 0 mm | 0.89 m/s, 22° | - | - |
| 1777954030 | 13.89° C | 90% | 1011.1 hPa | 0 mm | 0 m/s | - | - |
| 1777947815 | 14.44° C | 84% | 1011.5 hPa | 0 mm | 0 m/s | - | - |
| 1777941400 | 15° C | 81% | 1011.7 hPa | 0 mm | 0.89 m/s, 68° | - | - |
| 1777938280 | 15° C | 81% | 1012.1 hPa | 0 mm | 0.89 m/s, 68° | - | - |
| 1777935450 | 15.56° C | 80% | 1012.4 hPa | 0 mm | 0.89 m/s, 90° | - | - |
* Rain latest hour (hover to see other rain measurements)
** Current wind speed in m/s (hover to see current wind gust speed)